createdAt,value
2023-11-25T00:01:24.418Z,93094.28
2023-11-25T00:03:51.202Z,93091.34
2023-11-25T00:06:21.374Z,93091.94
2023-11-25T00:08:48.369Z,93078.22
2023-11-25T00:11:22.211Z,93076.53
2023-11-25T00:13:55.061Z,93085.38
2023-11-25T00:16:21.806Z,93093.53
2023-11-25T00:18:49.198Z,93089.97
2023-11-25T00:21:15.957Z,93087.66
2023-11-25T00:23:42.684Z,93078.28
2023-11-25T00:26:09.413Z,93081.34
2023-11-25T00:28:36.144Z,93090.13
2023-11-25T00:31:03.123Z,93092.63
2023-11-25T00:33:29.964Z,93089.91
2023-11-25T00:35:56.689Z,93086.00
2023-11-25T00:38:23.447Z,93082.53
2023-11-25T00:40:50.430Z,93069.91
2023-11-25T00:43:17.421Z,93082.63
2023-11-25T00:45:44.287Z,93076.47
2023-11-25T00:48:11.407Z,93078.41
2023-11-25T00:50:38.186Z,93078.00
2023-11-25T00:53:04.939Z,93075.56
2023-11-25T00:55:31.794Z,93081.91
2023-11-25T00:57:58.759Z,93083.44
2023-11-25T01:00:27.700Z,93093.00
2023-11-25T01:02:56.462Z,93085.53
2023-11-25T01:05:24.277Z,93097.84
2023-11-25T01:07:52.247Z,93099.03
2023-11-25T01:10:18.979Z,93102.63
2023-11-25T01:12:45.702Z,93093.72
2023-11-25T01:15:16.330Z,93101.84
2023-11-25T01:17:43.252Z,93117.13
2023-11-25T01:20:11.151Z,93104.66
2023-11-25T01:22:37.972Z,93116.69
2023-11-25T01:25:05.093Z,93112.69
2023-11-25T01:27:31.925Z,93115.47
2023-11-25T01:29:58.803Z,93115.97
2023-11-25T01:32:26.410Z,93123.88
2023-11-25T01:34:53.321Z,93131.38
2023-11-25T01:37:20.190Z,93127.19
2023-11-25T01:39:48.112Z,93139.44
2023-11-25T01:42:14.879Z,93141.72
2023-11-25T01:44:41.598Z,93136.44
2023-11-25T01:47:09.366Z,93135.50
2023-11-25T01:49:36.685Z,93145.09
2023-11-25T01:52:05.204Z,93141.66
2023-11-25T01:54:32.259Z,93152.53
2023-11-25T01:57:00.218Z,93148.41
2023-11-25T01:59:28.340Z,93150.91
2023-11-25T02:01:56.507Z,93153.53
2023-11-25T02:04:26.427Z,93156.59
2023-11-25T02:06:54.051Z,93147.69
2023-11-25T02:09:23.786Z,93150.50
2023-11-25T02:11:57.600Z,93163.00
2023-11-25T02:14:26.265Z,93163.69
2023-11-25T02:16:53.683Z,93166.03
2023-11-25T02:19:22.401Z,93166.97
2023-11-25T02:21:49.093Z,93171.03
2023-11-25T02:24:15.895Z,93172.91
2023-11-25T02:26:42.710Z,93171.25
2023-11-25T02:29:10.488Z,93178.22
2023-11-25T02:31:40.923Z,93185.66
2023-11-25T02:34:07.968Z,93185.84
2023-11-25T02:36:34.935Z,93199.09
2023-11-25T02:39:02.785Z,93196.81
2023-11-25T02:41:29.713Z,93201.31
2023-11-25T02:43:56.855Z,93199.91
2023-11-25T02:46:24.833Z,93207.53
2023-11-25T02:48:51.916Z,93201.28
2023-11-25T02:51:18.735Z,93206.78
2023-11-25T02:53:46.414Z,93204.16
2023-11-25T02:56:13.232Z,93207.59
2023-11-25T02:58:40.043Z,93206.72
2023-11-25T03:01:09.452Z,93213.44
2023-11-25T03:03:43.551Z,93213.09
2023-11-25T03:06:10.777Z,93219.44
2023-11-25T03:08:37.729Z,93235.69
2023-11-25T03:11:13.048Z,93240.97
2023-11-25T03:13:41.477Z,93239.00
2023-11-25T03:16:08.823Z,93250.16
2023-11-25T03:18:36.528Z,93256.00
2023-11-25T03:21:04.799Z,93254.97
2023-11-25T03:23:31.617Z,93256.94
2023-11-25T03:25:58.455Z,93262.03
2023-11-25T03:28:26.455Z,93265.16
2023-11-25T03:30:53.324Z,93260.31
2023-11-25T03:33:20.079Z,93267.78
2023-11-25T03:35:48.145Z,93268.34
2023-11-25T03:38:14.911Z,93272.94
2023-11-25T03:40:41.680Z,93273.31
2023-11-25T03:43:09.751Z,93274.03
2023-11-25T03:45:36.601Z,93274.75
2023-11-25T03:48:03.927Z,93277.09
2023-11-25T03:50:30.591Z,93281.03
2023-11-25T03:52:57.225Z,93274.94
2023-11-25T03:55:24.370Z,93281.53
2023-11-25T03:57:51.289Z,93271.50
2023-11-25T04:00:19.054Z,93268.19
2023-11-25T04:02:47.722Z,93273.38
2023-11-25T04:05:15.264Z,93271.03
2023-11-25T04:07:42.027Z,93285.38
2023-11-25T04:10:14.134Z,93286.31
2023-11-25T04:12:48.452Z,93285.06
2023-11-25T04:15:17.470Z,93290.09
2023-11-25T04:17:44.491Z,93292.00
2023-11-25T04:20:15.066Z,93292.19
2023-11-25T04:22:43.556Z,93287.63
2023-11-25T04:25:11.269Z,93280.38
2023-11-25T04:27:41.356Z,93280.16
2023-11-25T04:30:12.259Z,93289.66
2023-11-25T04:32:41.235Z,93295.59
2023-11-25T04:35:08.908Z,93295.66
2023-11-25T04:37:36.771Z,93307.34
2023-11-25T04:40:07.513Z,93310.31
2023-11-25T04:42:34.471Z,93296.50
2023-11-25T04:45:01.449Z,93294.75
2023-11-25T04:47:28.510Z,93308.34
2023-11-25T04:49:56.102Z,93305.47
2023-11-25T04:52:22.817Z,93304.44
2023-11-25T04:54:51.422Z,93298.56
2023-11-25T04:57:19.280Z,93301.75
2023-11-25T04:59:45.926Z,93299.41
2023-11-25T05:02:13.206Z,93300.22
2023-11-25T05:04:39.978Z,93304.19
2023-11-25T05:07:06.790Z,93314.56
2023-11-25T05:09:33.537Z,93314.47
2023-11-25T05:12:00.947Z,93318.78
2023-11-25T05:14:28.125Z,93321.59
2023-11-25T05:16:57.269Z,93329.53
2023-11-25T05:19:24.385Z,93321.00
2023-11-25T05:21:51.151Z,93323.31
2023-11-25T05:24:18.057Z,93320.84
2023-11-25T05:26:44.750Z,93312.53
2023-11-25T05:29:11.486Z,93308.66
2023-11-25T05:31:38.460Z,93310.41
2023-11-25T05:34:06.482Z,93312.25
2023-11-25T05:36:34.074Z,93314.75
2023-11-25T05:39:01.387Z,93316.09
2023-11-25T05:41:31.302Z,93307.03
2023-11-25T05:43:58.822Z,93312.75
2023-11-25T05:46:25.772Z,93314.97
2023-11-25T05:48:54.877Z,93324.78
2023-11-25T05:51:21.853Z,93329.25
2023-11-25T05:53:48.535Z,93326.16
2023-11-25T05:56:15.285Z,93326.84
2023-11-25T05:58:42.007Z,93328.84
2023-11-25T06:01:08.849Z,93314.16
2023-11-25T06:03:35.666Z,93318.63
2023-11-25T06:06:02.635Z,93309.53
2023-11-25T06:08:29.272Z,93320.00
2023-11-25T06:10:57.370Z,93307.78
2023-11-25T06:13:24.261Z,93309.91
2023-11-25T06:15:52.990Z,93305.78
2023-11-25T06:18:22.014Z,93304.00
2023-11-25T06:20:49.116Z,93311.81
2023-11-25T06:23:16.037Z,93313.84
2023-11-25T06:25:44.154Z,93314.28
2023-11-25T06:28:14.386Z,93320.16
2023-11-25T06:30:41.175Z,93321.38
2023-11-25T06:33:08.233Z,93332.56
2023-11-25T06:35:37.191Z,93331.09
2023-11-25T06:38:05.381Z,93338.81
2023-11-25T06:40:34.615Z,93347.13
2023-11-25T06:43:01.734Z,93352.88
2023-11-25T06:45:28.666Z,93341.75
2023-11-25T06:47:55.846Z,93345.59
2023-11-25T06:50:23.617Z,93356.06
2023-11-25T06:52:50.926Z,93356.69
2023-11-25T06:55:21.164Z,93352.38
2023-11-25T06:57:50.442Z,93361.81
2023-11-25T07:00:18.199Z,93353.22
2023-11-25T07:02:45.051Z,93360.16
2023-11-25T07:05:14.667Z,93354.88
2023-11-25T07:07:42.208Z,93361.38
2023-11-25T07:10:11.098Z,93356.53
2023-11-25T07:12:38.550Z,93363.72
2023-11-25T07:15:09.335Z,93364.22
2023-11-25T07:17:37.666Z,93359.13
2023-11-25T07:20:06.893Z,93366.13
2023-11-25T07:22:33.842Z,93368.50
2023-11-25T07:25:03.193Z,93372.38
2023-11-25T07:27:29.895Z,93377.03
2023-11-25T07:30:02.047Z,93375.47
2023-11-25T07:32:28.836Z,93378.38
2023-11-25T07:34:56.355Z,93378.72
2023-11-25T07:37:23.633Z,93384.28
2023-11-25T07:39:50.398Z,93396.25
2023-11-25T07:42:17.237Z,93398.91
2023-11-25T07:44:43.951Z,93392.41
2023-11-25T07:47:10.769Z,93394.25
2023-11-25T07:49:37.948Z,93385.22
2023-11-25T07:52:06.069Z,93392.88
2023-11-25T07:54:33.034Z,93396.84
2023-11-25T07:56:59.943Z,93400.72
2023-11-25T07:59:26.758Z,93401.03
2023-11-25T08:01:54.652Z,93407.59
2023-11-25T08:04:21.597Z,93405.69
2023-11-25T08:06:48.616Z,93400.88
2023-11-25T08:09:16.201Z,93408.91
2023-11-25T08:11:42.940Z,93405.13
2023-11-25T08:14:09.638Z,93404.22
2023-11-25T08:16:36.374Z,93404.69
2023-11-25T08:19:03.287Z,93403.13
2023-11-25T08:21:29.975Z,93417.72
2023-11-25T08:23:56.704Z,93416.63
2023-11-25T08:26:26.673Z,93428.16
2023-11-25T08:28:54.929Z,93433.28
2023-11-25T08:31:22.512Z,93441.94
2023-11-25T08:33:49.349Z,93441.34
2023-11-25T08:36:16.417Z,93446.59
2023-11-25T08:38:43.151Z,93438.06
2023-11-25T08:41:10.008Z,93452.84
2023-11-25T08:43:41.630Z,93443.47
2023-11-25T08:46:09.078Z,93441.00
2023-11-25T08:48:36.123Z,93446.41
2023-11-25T08:51:05.303Z,93437.47
2023-11-25T08:53:33.958Z,93439.50
2023-11-25T08:56:03.442Z,93446.13
2023-11-25T08:58:30.610Z,93437.03
2023-11-25T09:00:57.395Z,93435.66
2023-11-25T09:03:24.328Z,93438.31
2023-11-25T09:05:51.192Z,93439.34
2023-11-25T09:08:18.023Z,93445.06
2023-11-25T09:10:44.849Z,93452.66
2023-11-25T09:13:12.142Z,93448.06
2023-11-25T09:15:41.995Z,93444.34
2023-11-25T09:18:09.811Z,93444.06
2023-11-25T09:20:36.571Z,93442.19
2023-11-25T09:23:03.489Z,93447.16
2023-11-25T09:25:32.378Z,93452.31
2023-11-25T09:27:59.435Z,93449.50
2023-11-25T09:30:27.314Z,93453.50
2023-11-25T09:32:54.861Z,93451.84
2023-11-25T09:35:22.647Z,93451.84
2023-11-25T09:37:50.302Z,93450.91
2023-11-25T09:40:17.881Z,93452.38
2023-11-25T09:42:46.821Z,93448.25
2023-11-25T09:45:15.765Z,93463.59
2023-11-25T09:47:47.246Z,93457.28
2023-11-25T09:50:14.851Z,93462.63
2023-11-25T09:52:51.343Z,93459.88
2023-11-25T09:55:20.268Z,93461.91
2023-11-25T09:57:51.034Z,93460.50
2023-11-25T10:00:18.952Z,93461.69
2023-11-25T10:02:52.883Z,93472.78
2023-11-25T10:05:19.777Z,93460.47
2023-11-25T10:07:46.700Z,93454.06
2023-11-25T10:10:14.541Z,93453.78
2023-11-25T10:12:41.858Z,93456.88
2023-11-25T10:15:09.833Z,93463.81
2023-11-25T10:17:37.629Z,93459.22
2023-11-25T10:20:14.046Z,93456.69
2023-11-25T10:22:54.787Z,93456.56
2023-11-25T10:25:22.694Z,93453.16
2023-11-25T10:27:52.581Z,93453.06
2023-11-25T10:30:21.650Z,93454.09
2023-11-25T10:32:50.895Z,93445.81
2023-11-25T10:35:18.050Z,93452.56
2023-11-25T10:37:46.186Z,93443.28
2023-11-25T10:40:17.479Z,93445.81
2023-11-25T10:42:47.369Z,93437.50
2023-11-25T10:45:17.546Z,93451.44
2023-11-25T10:47:44.983Z,93435.38
2023-11-25T10:50:14.468Z,93437.00
2023-11-25T10:52:44.846Z,93428.69
2023-11-25T10:55:12.112Z,93429.13
2023-11-25T10:57:39.237Z,93420.19
2023-11-25T11:00:18.703Z,93427.44
2023-11-25T11:02:51.603Z,93431.34
2023-11-25T11:06:02.669Z,93432.66
2023-11-25T11:08:33.741Z,93426.84
2023-11-25T11:11:13.053Z,93424.91
2023-11-25T11:14:02.250Z,93421.88
2023-11-25T11:16:45.190Z,93427.81
2023-11-25T11:19:12.211Z,93421.31
2023-11-25T11:21:39.717Z,93424.03
2023-11-25T11:24:09.541Z,93420.00
2023-11-25T11:26:44.617Z,93418.66
2023-11-25T11:29:29.795Z,93425.13
2023-11-25T11:32:04.741Z,93413.84
2023-11-25T11:34:33.767Z,93414.34
2023-11-25T11:37:01.966Z,93413.50
2023-11-25T11:39:51.904Z,93408.72
2023-11-25T11:42:26.601Z,93409.84
2023-11-25T11:45:20.271Z,93409.41
2023-11-25T11:47:51.676Z,93412.91
2023-11-25T11:50:20.423Z,93409.44
2023-11-25T11:53:00.026Z,93406.19
2023-11-25T11:55:33.198Z,93395.34
2023-11-25T11:58:11.430Z,93395.84
2023-11-25T12:00:55.707Z,93401.56
2023-11-25T12:03:23.281Z,93398.22
2023-11-25T12:05:50.014Z,93395.38
2023-11-25T12:08:16.794Z,93403.81
2023-11-25T12:10:43.632Z,93400.28
2023-11-25T12:13:12.120Z,93391.44
2023-11-25T12:15:40.100Z,93394.75
2023-11-25T12:18:07.047Z,93398.53
2023-11-25T12:20:34.641Z,93395.47
2023-11-25T12:23:08.569Z,93389.50
2023-11-25T12:25:36.725Z,93385.56
2023-11-25T12:28:11.183Z,93388.94
2023-11-25T12:30:39.433Z,93382.88
2023-11-25T12:33:09.648Z,93389.72
2023-11-25T12:35:37.004Z,93384.28
2023-11-25T12:38:14.407Z,93380.75
2023-11-25T12:40:44.735Z,93377.53
2023-11-25T12:43:11.743Z,93378.66
2023-11-25T12:45:43.522Z,93375.81
2023-11-25T12:48:14.079Z,93368.34
2023-11-25T12:51:00.009Z,93385.13
2023-11-25T12:53:26.788Z,93380.00
2023-11-25T12:55:53.666Z,93382.66
2023-11-25T12:58:21.590Z,93385.88
2023-11-25T13:00:53.164Z,93381.69
2023-11-25T13:03:23.734Z,93377.28
2023-11-25T13:06:11.146Z,93380.44
2023-11-25T13:08:44.680Z,93379.38
2023-11-25T13:11:12.349Z,93382.13
2023-11-25T13:13:39.787Z,93385.34
2023-11-25T13:16:09.854Z,93379.34
2023-11-25T13:18:37.001Z,93376.22
2023-11-25T13:21:08.298Z,93376.88
2023-11-25T13:23:35.535Z,93373.13
2023-11-25T13:26:03.382Z,93375.00
2023-11-25T13:28:30.749Z,93373.28
2023-11-25T13:30:57.514Z,93362.97
2023-11-25T13:33:24.232Z,93365.28
2023-11-25T13:35:50.954Z,93372.53
2023-11-25T13:38:17.870Z,93372.22
2023-11-25T13:40:45.123Z,93369.66
2023-11-25T13:43:21.478Z,93372.47
2023-11-25T13:45:48.823Z,93377.16
2023-11-25T13:48:17.773Z,93381.13
2023-11-25T13:50:44.975Z,93381.50
2023-11-25T13:53:14.085Z,93381.75
2023-11-25T13:55:49.139Z,93382.69
2023-11-25T13:58:19.759Z,93383.22
2023-11-25T14:00:46.544Z,93374.16
2023-11-25T14:03:15.077Z,93378.66
2023-11-25T14:05:43.899Z,93376.28
2023-11-25T14:08:20.650Z,93377.00
2023-11-25T14:10:47.428Z,93376.78
2023-11-25T14:13:17.111Z,93371.19
2023-11-25T14:15:43.943Z,93370.25
2023-11-25T14:18:11.802Z,93376.38
2023-11-25T14:20:38.769Z,93377.94
2023-11-25T14:23:06.606Z,93375.28
2023-11-25T14:25:33.581Z,93381.28
2023-11-25T14:28:02.622Z,93376.94
2023-11-25T14:30:31.689Z,93371.75
2023-11-25T14:32:58.575Z,93366.53
2023-11-25T14:35:25.451Z,93367.06
2023-11-25T14:37:54.567Z,93365.34
2023-11-25T14:40:24.911Z,93369.97
2023-11-25T14:42:51.909Z,93369.31
2023-11-25T14:45:19.135Z,93371.94
2023-11-25T14:47:46.233Z,93376.00
2023-11-25T14:50:14.085Z,93372.47
2023-11-25T14:52:41.767Z,93371.38
2023-11-25T14:55:12.890Z,93364.16
2023-11-25T14:57:39.991Z,93373.03
2023-11-25T15:00:09.793Z,93373.56
2023-11-25T15:02:37.166Z,93365.50
2023-11-25T15:05:05.429Z,93363.66
2023-11-25T15:07:32.264Z,93359.56
2023-11-25T15:09:58.979Z,93362.69
2023-11-25T15:12:25.647Z,93364.19
2023-11-25T15:14:55.539Z,93366.44
2023-11-25T15:17:23.826Z,93361.09
2023-11-25T15:19:50.662Z,93354.25
2023-11-25T15:22:17.386Z,93354.72
2023-11-25T15:24:44.144Z,93353.84
2023-11-25T15:27:13.355Z,93356.06
2023-11-25T15:29:40.051Z,93354.41
2023-11-25T15:32:07.076Z,93366.56
2023-11-25T15:34:33.896Z,93356.50
2023-11-25T15:37:00.610Z,93359.06
2023-11-25T15:39:28.387Z,93365.91
2023-11-25T15:41:55.542Z,93361.41
2023-11-25T15:44:22.614Z,93361.38
2023-11-25T15:46:50.053Z,93365.53
2023-11-25T15:49:17.131Z,93365.53
2023-11-25T15:51:45.058Z,93375.31
2023-11-25T15:54:12.304Z,93371.53
2023-11-25T15:56:39.502Z,93381.13
2023-11-25T15:59:07.852Z,93381.00
2023-11-25T16:01:35.174Z,93381.44
2023-11-25T16:04:03.026Z,93382.44
2023-11-25T16:06:30.399Z,93377.66
2023-11-25T16:08:57.991Z,93387.13
2023-11-25T16:11:25.490Z,93379.50
2023-11-25T16:13:52.235Z,93386.38
2023-11-25T16:16:19.760Z,93385.63
2023-11-25T16:18:46.465Z,93399.81
2023-11-25T16:21:13.184Z,93393.97
2023-11-25T16:23:41.576Z,93382.22
2023-11-25T16:26:13.057Z,93382.78
2023-11-25T16:28:40.285Z,93382.72
2023-11-25T16:31:10.706Z,93390.75
2023-11-25T16:33:38.350Z,93388.31
2023-11-25T16:36:05.421Z,93394.31
2023-11-25T16:38:33.740Z,93394.66
2023-11-25T16:41:02.557Z,93399.28
2023-11-25T16:43:29.356Z,93382.13
2023-11-25T16:45:57.841Z,93391.94
2023-11-25T16:48:32.427Z,93389.88
2023-11-25T16:51:05.958Z,93403.66
2023-11-25T16:53:32.646Z,93400.28
2023-11-25T16:55:59.470Z,93400.34
2023-11-25T16:58:26.198Z,93405.13
2023-11-25T17:00:52.828Z,93399.31
2023-11-25T17:03:19.682Z,93401.56
2023-11-25T17:05:47.616Z,93404.38
2023-11-25T17:08:14.366Z,93402.22
2023-11-25T17:10:41.136Z,93415.63
2023-11-25T17:13:10.217Z,93414.97
2023-11-25T17:15:38.069Z,93419.34
2023-11-25T17:18:05.007Z,93421.72
2023-11-25T17:20:32.616Z,93417.06
2023-11-25T17:22:59.588Z,93422.66
2023-11-25T17:25:26.356Z,93422.94
2023-11-25T17:27:53.045Z,93427.69
2023-11-25T17:30:19.901Z,93422.34
2023-11-25T17:32:46.559Z,93419.78
2023-11-25T17:35:13.366Z,93426.19
2023-11-25T17:37:40.157Z,93423.38
2023-11-25T17:40:07.524Z,93418.47
2023-11-25T17:42:34.224Z,93429.69
2023-11-25T17:45:01.505Z,93433.97
2023-11-25T17:47:28.264Z,93429.50
2023-11-25T17:49:55.022Z,93429.38
2023-11-25T17:52:21.789Z,93425.41
2023-11-25T17:54:48.481Z,93426.97
2023-11-25T17:57:17.372Z,93427.94
2023-11-25T17:59:44.098Z,93422.53
2023-11-25T18:02:11.009Z,93421.69
2023-11-25T18:04:38.093Z,93423.56
2023-11-25T18:07:05.472Z,93421.44
2023-11-25T18:09:32.191Z,93419.41
2023-11-25T18:11:58.867Z,93409.41
2023-11-25T18:14:25.701Z,93422.78
2023-11-25T18:16:54.718Z,93422.19
2023-11-25T18:19:21.653Z,93419.47
2023-11-25T18:21:48.321Z,93420.66
2023-11-25T18:24:14.984Z,93429.31
2023-11-25T18:26:41.648Z,93429.00
2023-11-25T18:29:08.360Z,93435.63
2023-11-25T18:31:35.239Z,93439.44
2023-11-25T18:34:02.097Z,93446.44
2023-11-25T18:36:28.841Z,93439.16
2023-11-25T18:38:55.685Z,93439.72
2023-11-25T18:41:22.444Z,93449.44
2023-11-25T18:43:49.259Z,93452.94
2023-11-25T18:46:16.076Z,93453.09
2023-11-25T18:48:42.855Z,93444.16
2023-11-25T18:51:09.720Z,93448.69
2023-11-25T18:53:36.923Z,93449.09
2023-11-25T18:56:04.000Z,93445.41
2023-11-25T18:58:32.901Z,93441.41
2023-11-25T19:01:00.126Z,93437.56
2023-11-25T19:03:27.246Z,93434.69
2023-11-25T19:05:54.243Z,93437.94
2023-11-25T19:08:21.343Z,93433.22
2023-11-25T19:10:49.546Z,93435.28
2023-11-25T19:13:16.937Z,93440.16
2023-11-25T19:15:43.964Z,93448.00
2023-11-25T19:18:11.753Z,93444.34
2023-11-25T19:20:39.447Z,93437.69
2023-11-25T19:23:06.695Z,93444.66
2023-11-25T19:25:36.433Z,93443.09
2023-11-25T19:28:03.304Z,93442.06
2023-11-25T19:30:30.142Z,93450.59
2023-11-25T19:32:57.001Z,93440.09
2023-11-25T19:35:23.880Z,93446.09
2023-11-25T19:37:50.606Z,93437.69
2023-11-25T19:40:18.502Z,93442.50
2023-11-25T19:42:45.211Z,93439.59
2023-11-25T19:45:12.033Z,93444.09
2023-11-25T19:47:41.751Z,93446.38
2023-11-25T19:50:09.222Z,93452.31
2023-11-25T19:52:38.519Z,93432.69
2023-11-25T19:55:07.236Z,93446.84
2023-11-25T19:57:34.785Z,93453.16
2023-11-25T20:00:03.733Z,93453.56
2023-11-25T20:02:30.710Z,93452.19
2023-11-25T20:04:58.201Z,93454.44
2023-11-25T20:07:24.920Z,93448.78
2023-11-25T20:09:51.692Z,93447.34
2023-11-25T20:12:18.422Z,93439.53
2023-11-25T20:14:45.196Z,93447.69
2023-11-25T20:17:12.633Z,93452.47
2023-11-25T20:19:39.504Z,93449.38
2023-11-25T20:22:09.259Z,93442.84
2023-11-25T20:24:35.957Z,93436.47
2023-11-25T20:27:03.110Z,93448.56
2023-11-25T20:29:29.823Z,93444.22
2023-11-25T20:31:56.562Z,93445.28
2023-11-25T20:34:25.104Z,93447.94
2023-11-25T20:36:52.145Z,93443.41
2023-11-25T20:39:19.005Z,93437.78
2023-11-25T20:41:45.866Z,93441.78
2023-11-25T20:44:12.798Z,93441.41
2023-11-25T20:46:42.275Z,93446.78
2023-11-25T20:49:09.035Z,93448.94
2023-11-25T20:51:36.271Z,93446.19
2023-11-25T20:54:03.457Z,93457.31
2023-11-25T20:56:31.889Z,93454.63
2023-11-25T20:59:00.681Z,93462.16
2023-11-25T21:01:28.152Z,93460.91
2023-11-25T21:03:58.347Z,93456.69
2023-11-25T21:06:27.779Z,93468.72
2023-11-25T21:08:54.526Z,93465.19
2023-11-25T21:11:21.368Z,93464.19
2023-11-25T21:13:48.233Z,93460.16
2023-11-25T21:16:16.110Z,93455.31
2023-11-25T21:18:43.194Z,93463.16
2023-11-25T21:21:09.981Z,93464.09
2023-11-25T21:23:36.698Z,93465.88
2023-11-25T21:26:03.591Z,93470.53
2023-11-25T21:28:30.546Z,93462.97
2023-11-25T21:30:57.293Z,93465.81
2023-11-25T21:33:24.079Z,93471.91
2023-11-25T21:35:51.007Z,93473.91
2023-11-25T21:38:18.704Z,93471.72
2023-11-25T21:40:45.611Z,93464.88
2023-11-25T21:43:12.464Z,93471.28
2023-11-25T21:45:39.459Z,93465.66
2023-11-25T21:48:06.507Z,93463.38
2023-11-25T21:50:33.607Z,93454.44
2023-11-25T21:53:01.287Z,93469.41
2023-11-25T21:55:28.154Z,93470.25
2023-11-25T21:57:54.944Z,93467.69
2023-11-25T22:00:21.699Z,93469.91
2023-11-25T22:02:48.879Z,93474.34
2023-11-25T22:05:15.990Z,93471.63
2023-11-25T22:07:42.877Z,93474.53
2023-11-25T22:10:21.656Z,93469.63
2023-11-25T22:12:55.294Z,93472.19
2023-11-25T22:15:22.102Z,93471.56
2023-11-25T22:17:49.064Z,93469.69
2023-11-25T22:20:17.475Z,93478.72
2023-11-25T22:22:44.356Z,93471.22
2023-11-25T22:25:13.805Z,93476.19
2023-11-25T22:27:41.376Z,93479.09
2023-11-25T22:30:12.804Z,93488.53
2023-11-25T22:32:39.696Z,93471.28
2023-11-25T22:35:06.992Z,93486.75
2023-11-25T22:37:33.964Z,93479.63
2023-11-25T22:40:04.766Z,93480.78
2023-11-25T22:42:31.861Z,93494.28
2023-11-25T22:44:58.624Z,93496.75
2023-11-25T22:47:25.453Z,93486.72
2023-11-25T22:49:52.280Z,93484.94
2023-11-25T22:52:19.125Z,93492.00
2023-11-25T22:54:45.858Z,93486.78
2023-11-25T22:57:12.598Z,93490.75
2023-11-25T22:59:39.456Z,93495.88
2023-11-25T23:02:07.457Z,93494.97
2023-11-25T23:04:34.626Z,93495.19
2023-11-25T23:07:01.494Z,93502.06
2023-11-25T23:09:29.255Z,93497.63
2023-11-25T23:11:56.210Z,93501.31
2023-11-25T23:14:23.154Z,93503.34
2023-11-25T23:16:50.978Z,93506.03
2023-11-25T23:19:18.051Z,93507.59
2023-11-25T23:21:47.388Z,93500.91
2023-11-25T23:24:14.175Z,93514.09
2023-11-25T23:26:41.167Z,93503.81
2023-11-25T23:29:08.187Z,93512.22
2023-11-25T23:31:35.113Z,93508.03
2023-11-25T23:34:01.863Z,93502.03
2023-11-25T23:36:29.806Z,93504.50
2023-11-25T23:38:56.545Z,93501.84
2023-11-25T23:41:23.409Z,93505.44
2023-11-25T23:43:51.162Z,93520.19
2023-11-25T23:46:18.012Z,93511.19
2023-11-25T23:48:44.785Z,93518.06
2023-11-25T23:51:11.584Z,93515.38
2023-11-25T23:53:38.799Z,93518.97
2023-11-25T23:56:05.838Z,93518.63
2023-11-25T23:58:32.589Z,93520.97
